createdAt,value
2019-06-27T00:01:39.985Z,11.90
2019-06-27T00:04:11.211Z,14.80
2019-06-27T00:06:42.090Z,13.10
2019-06-27T00:09:14.535Z,12.57
2019-06-27T00:11:45.256Z,12.87
2019-06-27T00:14:15.925Z,13.83
2019-06-27T00:16:46.669Z,11.03
2019-06-27T00:19:17.461Z,11.90
2019-06-27T00:21:48.250Z,11.37
2019-06-27T00:24:19.105Z,12.37
2019-06-27T00:26:57.041Z,11.00
2019-06-27T00:29:22.442Z,11.43
2019-06-27T00:31:53.266Z,14.63
2019-06-27T00:34:24.058Z,14.43
2019-06-27T00:36:54.827Z,12.50
2019-06-27T00:39:25.602Z,10.83
2019-06-27T00:41:56.441Z,15.03
2019-06-27T00:44:27.223Z,13.90
2019-06-27T00:46:58.028Z,14.63
2019-06-27T00:49:28.716Z,14.37
2019-06-27T00:51:59.582Z,14.40
2019-06-27T00:54:30.331Z,14.77
2019-06-27T00:57:13.659Z,12.87
2019-06-27T00:59:33.940Z,11.90
2019-06-27T01:02:04.728Z,10.87
2019-06-27T01:04:35.438Z,11.67
2019-06-27T01:07:06.294Z,12.03
2019-06-27T01:09:37.149Z,16.03
2019-06-27T01:12:07.876Z,15.83
2019-06-27T01:14:38.645Z,13.67
2019-06-27T01:17:09.806Z,14.83
2019-06-27T01:19:40.660Z,15.27
2019-06-27T01:22:11.940Z,12.20
2019-06-27T01:24:42.696Z,12.73
2019-06-27T01:27:28.875Z,13.13
2019-06-27T01:29:45.852Z,15.47
2019-06-27T01:32:16.558Z,13.87
2019-06-27T01:34:47.490Z,14.03
2019-06-27T01:37:18.298Z,12.50
2019-06-27T01:39:51.676Z,13.73
2019-06-27T01:42:22.422Z,15.57
2019-06-27T01:44:58.065Z,14.63
2019-06-27T01:47:28.840Z,13.00
2019-06-27T01:49:59.670Z,13.83
2019-06-27T01:52:30.520Z,14.27
2019-06-27T01:55:01.286Z,13.17
2019-06-27T01:57:46.156Z,14.80
2019-06-27T02:00:11.119Z,15.17
2019-06-27T02:02:42.004Z,14.53
2019-06-27T02:05:13.766Z,12.73
2019-06-27T02:07:44.730Z,18.00
2019-06-27T02:10:15.968Z,13.70
2019-06-27T02:12:46.832Z,12.27
2019-06-27T02:15:22.089Z,13.47
2019-06-27T02:17:51.927Z,16.67
2019-06-27T02:20:22.758Z,13.17
2019-06-27T02:22:53.558Z,15.80
2019-06-27T02:25:24.499Z,14.07
2019-06-27T02:28:03.769Z,15.20
2019-06-27T02:30:30.823Z,13.80
2019-06-27T02:33:01.569Z,14.27
2019-06-27T02:35:32.488Z,20.60
2019-06-27T02:38:03.349Z,15.43
2019-06-27T02:40:34.145Z,16.97
2019-06-27T02:43:05.125Z,15.07
2019-06-27T02:45:35.891Z,16.67
2019-06-27T02:48:06.755Z,13.13
2019-06-27T02:50:37.600Z,16.90
2019-06-27T02:53:08.458Z,19.10
2019-06-27T02:55:39.237Z,14.63
2019-06-27T02:58:28.746Z,16.53
2019-06-27T03:00:42.415Z,15.97
2019-06-27T03:03:13.141Z,13.37
2019-06-27T03:05:43.968Z,14.07
2019-06-27T03:08:15.026Z,16.10
2019-06-27T03:10:45.898Z,16.00
2019-06-27T03:13:16.753Z,16.13
2019-06-27T03:15:47.542Z,15.37
2019-06-27T03:18:18.394Z,13.53
2019-06-27T03:20:49.085Z,17.20
2019-06-27T03:23:19.871Z,15.80
2019-06-27T03:25:50.561Z,14.17
2019-06-27T03:28:21.445Z,16.13
2019-06-27T03:30:52.326Z,14.23
2019-06-27T03:33:23.049Z,14.63
2019-06-27T03:35:54.102Z,18.13
2019-06-27T03:38:25.064Z,18.63
2019-06-27T03:40:55.872Z,17.63
2019-06-27T03:43:26.577Z,17.40
2019-06-27T03:45:57.372Z,14.77
2019-06-27T03:48:28.228Z,17.67
2019-06-27T03:50:58.938Z,17.03
2019-06-27T03:53:29.664Z,15.87
2019-06-27T03:56:03.241Z,16.03
2019-06-27T03:58:34.127Z,21.43
2019-06-27T04:01:05.219Z,18.87
2019-06-27T04:03:35.994Z,15.33
2019-06-27T04:06:06.676Z,13.93
2019-06-27T04:08:37.390Z,14.43
2019-06-27T04:11:08.072Z,14.93
2019-06-27T04:13:38.868Z,15.37
2019-06-27T04:16:09.660Z,16.30
2019-06-27T04:18:40.598Z,13.70
2019-06-27T04:21:14.559Z,14.47
2019-06-27T04:23:45.396Z,15.60
2019-06-27T04:26:16.270Z,16.70
2019-06-27T04:28:47.185Z,17.93
2019-06-27T04:31:17.976Z,16.03
2019-06-27T04:33:48.833Z,15.13
2019-06-27T04:36:19.616Z,14.87
2019-06-27T04:38:50.601Z,15.17
2019-06-27T04:41:21.486Z,12.77
2019-06-27T04:43:52.266Z,13.57
2019-06-27T04:46:23.630Z,13.93
2019-06-27T04:48:54.421Z,13.07
2019-06-27T04:51:25.371Z,11.97
2019-06-27T04:53:56.163Z,13.33
2019-06-27T04:56:26.884Z,14.97
2019-06-27T04:58:57.589Z,15.50
2019-06-27T05:01:28.286Z,15.40
2019-06-27T05:03:59.061Z,12.50
2019-06-27T05:06:29.905Z,12.83
2019-06-27T05:09:00.671Z,18.80
2019-06-27T05:11:31.465Z,14.03
2019-06-27T05:14:02.181Z,13.37
2019-06-27T05:16:32.943Z,16.40
2019-06-27T05:19:03.666Z,10.93
2019-06-27T05:21:34.382Z,12.77
2019-06-27T05:24:05.240Z,9.87
2019-06-27T05:26:36.972Z,12.20
2019-06-27T05:29:07.672Z,13.23
2019-06-27T05:31:38.409Z,15.23
2019-06-27T05:34:09.114Z,13.63
2019-06-27T05:36:39.804Z,12.47
2019-06-27T05:39:10.652Z,10.10
2019-06-27T05:41:41.458Z,11.03
2019-06-27T05:44:12.170Z,9.87
2019-06-27T05:46:42.848Z,11.33
2019-06-27T05:49:13.774Z,12.43
2019-06-27T05:51:44.476Z,10.37
2019-06-27T05:54:15.344Z,11.80
2019-06-27T05:56:46.485Z,10.37
2019-06-27T05:59:17.310Z,11.93
2019-06-27T06:01:48.166Z,8.10
2019-06-27T06:04:18.877Z,7.80
2019-06-27T06:06:49.592Z,8.60
2019-06-27T06:09:20.353Z,7.53
2019-06-27T06:11:51.320Z,6.83
2019-06-27T06:14:22.177Z,11.00
2019-06-27T06:16:53.027Z,8.90
2019-06-27T06:19:23.860Z,8.83
2019-06-27T06:21:55.039Z,7.85
2019-06-27T06:24:25.993Z,7.30
2019-06-27T06:26:56.755Z,10.43
2019-06-27T06:29:27.522Z,6.83
2019-06-27T06:31:58.308Z,8.23
2019-06-27T06:34:29.148Z,6.20
2019-06-27T06:36:59.986Z,7.42
2019-06-27T06:39:30.893Z,7.17
2019-06-27T06:42:01.641Z,7.78
2019-06-27T06:44:32.809Z,8.23
2019-06-27T06:47:03.621Z,6.45
2019-06-27T06:49:34.505Z,7.10
2019-06-27T06:52:05.344Z,14.60
2019-06-27T06:54:36.138Z,10.25
2019-06-27T06:57:06.981Z,9.18
2019-06-27T06:59:37.952Z,10.38
2019-06-27T07:02:08.872Z,11.28
2019-06-27T07:04:39.765Z,7.65
2019-06-27T07:07:13.165Z,6.87
2019-06-27T07:09:43.197Z,10.75
2019-06-27T07:12:14.120Z,5.95
2019-06-27T07:14:44.969Z,8.23
2019-06-27T07:17:15.849Z,9.80
2019-06-27T07:19:46.690Z,7.37
2019-06-27T07:22:20.523Z,8.05
2019-06-27T07:24:51.369Z,7.30
2019-06-27T07:27:22.224Z,7.03
2019-06-27T07:29:53.081Z,8.85
2019-06-27T07:32:23.826Z,8.53
2019-06-27T07:34:54.709Z,9.25
2019-06-27T07:37:25.498Z,7.42
2019-06-27T07:39:56.420Z,8.83
2019-06-27T07:42:27.212Z,7.65
2019-06-27T07:44:58.025Z,9.68
2019-06-27T07:47:28.874Z,6.90
2019-06-27T07:49:59.673Z,9.15
2019-06-27T07:52:30.662Z,8.20
2019-06-27T07:55:01.586Z,8.40
2019-06-27T07:57:32.456Z,8.30
2019-06-27T08:00:08.000Z,7.40
2019-06-27T08:02:38.998Z,6.92
2019-06-27T08:05:10.537Z,9.83
2019-06-27T08:07:41.737Z,6.70
2019-06-27T08:10:14.393Z,9.20
2019-06-27T08:12:45.228Z,7.67
2019-06-27T08:15:16.658Z,6.62
2019-06-27T08:17:47.478Z,6.47
2019-06-27T08:20:18.482Z,6.65
2019-06-27T08:22:49.285Z,6.95
2019-06-27T08:25:20.486Z,8.05
2019-06-27T08:27:51.327Z,9.48
2019-06-27T08:30:22.328Z,11.68
2019-06-27T08:32:56.207Z,7.75
2019-06-27T08:35:26.997Z,7.37
2019-06-27T08:37:57.829Z,8.78
2019-06-27T08:40:28.786Z,9.15
2019-06-27T08:42:59.612Z,17.20
2019-06-27T08:45:30.476Z,6.20
2019-06-27T08:48:01.326Z,10.10
2019-06-27T08:50:32.194Z,6.58
2019-06-27T08:53:03.095Z,6.35
2019-06-27T08:55:33.959Z,6.35
2019-06-27T08:58:04.821Z,7.03
2019-06-27T09:00:35.679Z,8.63
2019-06-27T09:03:06.644Z,7.28
2019-06-27T09:05:37.696Z,6.53
2019-06-27T09:08:08.642Z,14.10
2019-06-27T09:10:39.621Z,7.60
2019-06-27T09:13:10.452Z,9.75
2019-06-27T09:15:41.313Z,7.97
2019-06-27T09:18:12.223Z,11.08
2019-06-27T09:20:43.070Z,8.78
2019-06-27T09:23:14.051Z,9.05
2019-06-27T09:25:44.975Z,6.85
2019-06-27T09:28:16.146Z,6.72
2019-06-27T09:30:47.010Z,7.17
2019-06-27T09:33:17.878Z,10.55
2019-06-27T09:35:48.644Z,9.20
2019-06-27T09:38:19.415Z,12.00
2019-06-27T09:40:50.197Z,9.43
2019-06-27T09:43:21.101Z,6.15
2019-06-27T09:45:51.929Z,7.25
2019-06-27T09:48:23.091Z,8.10
2019-06-27T09:50:54.063Z,11.68
2019-06-27T09:53:24.983Z,7.30
2019-06-27T09:55:55.774Z,6.83
2019-06-27T09:58:26.538Z,13.43
2019-06-27T10:00:57.483Z,6.05
2019-06-27T10:03:28.282Z,7.25
2019-06-27T10:05:59.146Z,6.70
2019-06-27T10:08:29.990Z,6.28
2019-06-27T10:11:00.868Z,6.60
2019-06-27T10:13:31.889Z,6.30
2019-06-27T10:16:02.757Z,7.95
2019-06-27T10:18:33.510Z,6.92
2019-06-27T10:21:04.413Z,5.80
2019-06-27T10:23:35.161Z,9.43
2019-06-27T10:26:06.126Z,5.70
2019-06-27T10:28:36.994Z,5.90
2019-06-27T10:31:07.910Z,9.40
2019-06-27T10:33:38.673Z,5.87
2019-06-27T10:36:09.587Z,8.65
2019-06-27T10:38:40.457Z,7.28
2019-06-27T10:41:11.304Z,4.33
2019-06-27T10:43:42.213Z,7.05
2019-06-27T10:46:13.062Z,6.50
2019-06-27T10:48:43.896Z,6.58
2019-06-27T10:51:14.784Z,4.30
2019-06-27T10:53:45.666Z,4.58
2019-06-27T10:56:16.446Z,5.05
2019-06-27T10:58:47.306Z,4.58
2019-06-27T11:01:18.564Z,4.75
2019-06-27T11:03:50.036Z,3.83
2019-06-27T11:06:20.861Z,5.85
2019-06-27T11:08:51.618Z,6.08
2019-06-27T11:11:22.474Z,4.97
2019-06-27T11:13:58.887Z,5.28
2019-06-27T11:16:26.380Z,5.42
2019-06-27T11:18:57.556Z,6.50
2019-06-27T11:21:28.413Z,4.37
2019-06-27T11:23:59.181Z,3.42
2019-06-27T11:26:29.961Z,4.72
2019-06-27T11:29:00.857Z,4.40
2019-06-27T11:31:31.645Z,7.20
2019-06-27T11:34:02.410Z,3.40
2019-06-27T11:36:33.310Z,5.15
2019-06-27T11:39:05.593Z,5.05
2019-06-27T11:41:36.372Z,6.62
2019-06-27T11:44:07.235Z,7.10
2019-06-27T11:46:38.050Z,5.55
2019-06-27T11:49:08.842Z,4.15
2019-06-27T11:51:39.606Z,3.83
2019-06-27T11:54:10.378Z,5.30
2019-06-27T11:56:41.367Z,4.17
2019-06-27T11:59:12.294Z,5.10
2019-06-27T12:01:43.833Z,5.12
2019-06-27T12:04:14.706Z,7.62
2019-06-27T12:06:45.569Z,4.28
2019-06-27T12:09:16.383Z,4.10
2019-06-27T12:11:47.178Z,4.33
2019-06-27T12:14:19.621Z,3.80
2019-06-27T12:16:50.560Z,5.42
2019-06-27T12:19:21.385Z,3.60
2019-06-27T12:21:52.150Z,3.75
2019-06-27T12:24:23.026Z,3.72
2019-06-27T12:26:53.871Z,3.50
2019-06-27T12:29:24.614Z,4.25
2019-06-27T12:31:55.401Z,3.12
2019-06-27T12:34:26.152Z,2.60
2019-06-27T12:36:56.914Z,5.80
2019-06-27T12:39:27.694Z,2.58
2019-06-27T12:41:59.009Z,2.80
2019-06-27T12:44:29.870Z,2.83
2019-06-27T12:47:00.788Z,2.55
2019-06-27T12:49:50.136Z,3.77
2019-06-27T12:52:04.164Z,2.10
2019-06-27T12:54:35.070Z,1.72
2019-06-27T12:57:05.918Z,3.10
2019-06-27T12:59:39.548Z,3.37
2019-06-27T13:02:11.622Z,1.80
2019-06-27T13:04:41.935Z,1.80
2019-06-27T13:07:12.782Z,2.55
2019-06-27T13:09:43.635Z,2.92
2019-06-27T13:12:14.451Z,3.40
2019-06-27T13:14:45.314Z,4.37
2019-06-27T13:17:16.180Z,2.80
2019-06-27T13:19:47.470Z,1.50
2019-06-27T13:22:18.255Z,3.15
2019-06-27T13:24:49.059Z,2.00
2019-06-27T13:27:19.979Z,2.08
2019-06-27T13:29:53.685Z,4.60
2019-06-27T13:32:25.563Z,4.10
2019-06-27T13:34:56.500Z,1.50
2019-06-27T13:37:29.990Z,2.20
2019-06-27T13:39:59.857Z,2.20
2019-06-27T13:42:30.632Z,1.67
2019-06-27T13:45:01.547Z,1.87
2019-06-27T13:47:32.303Z,1.98
2019-06-27T13:50:03.341Z,1.27
2019-06-27T13:52:34.162Z,3.25
2019-06-27T13:55:05.437Z,1.37
2019-06-27T13:57:36.297Z,1.12
2019-06-27T14:00:08.187Z,5.15
2019-06-27T14:02:39.110Z,1.47
2019-06-27T14:05:10.024Z,0.85
2019-06-27T14:07:40.883Z,1.35
2019-06-27T14:10:12.111Z,1.22
2019-06-27T14:12:44.839Z,4.80
2019-06-27T14:15:15.706Z,1.72
2019-06-27T14:17:46.583Z,1.02
2019-06-27T14:20:17.483Z,0.78
2019-06-27T14:22:48.598Z,1.07
2019-06-27T14:25:31.323Z,2.50
2019-06-27T14:28:39.019Z,1.55
2019-06-27T14:31:13.875Z,2.08
2019-06-27T14:33:44.849Z,0.80
2019-06-27T14:36:15.617Z,0.75
2019-06-27T14:38:46.550Z,0.78
2019-06-27T14:41:17.308Z,0.93
2019-06-27T14:43:48.168Z,1.85
2019-06-27T14:46:19.050Z,0.60
2019-06-27T14:48:49.976Z,0.65
2019-06-27T14:51:20.896Z,1.10
2019-06-27T14:53:51.734Z,2.47
2019-06-27T14:56:22.659Z,0.90
2019-06-27T14:58:53.799Z,2.50
2019-06-27T15:01:24.662Z,3.47
2019-06-27T15:03:55.460Z,2.10
2019-06-27T15:06:26.360Z,1.75
2019-06-27T15:08:57.207Z,1.15
2019-06-27T15:11:28.091Z,1.30
2019-06-27T15:13:58.910Z,1.27
2019-06-27T15:16:29.735Z,0.60
2019-06-27T15:19:00.512Z,2.22
2019-06-27T15:21:31.364Z,1.47
2019-06-27T15:24:02.281Z,3.10
2019-06-27T15:26:33.144Z,1.60
2019-06-27T15:29:04.003Z,2.10
2019-06-27T15:31:36.681Z,2.80
2019-06-27T15:34:07.502Z,0.78
2019-06-27T15:36:38.757Z,1.57
2019-06-27T15:39:12.054Z,4.97
2019-06-27T15:41:42.194Z,2.92
2019-06-27T15:44:12.972Z,2.20
2019-06-27T15:46:43.853Z,2.40
2019-06-27T15:49:14.626Z,4.60
2019-06-27T15:51:45.393Z,2.37
2019-06-27T15:54:16.257Z,1.90
2019-06-27T15:56:47.162Z,2.20
2019-06-27T15:59:17.929Z,0.95
2019-06-27T16:01:48.856Z,1.95
2019-06-27T16:04:32.543Z,2.40
2019-06-27T16:06:52.720Z,3.12
2019-06-27T16:09:23.495Z,2.30
2019-06-27T16:11:54.586Z,1.22
2019-06-27T16:14:25.362Z,2.17
2019-06-27T16:16:56.292Z,4.72
2019-06-27T16:19:27.242Z,2.17
2019-06-27T16:21:58.227Z,0.80
2019-06-27T16:24:29.156Z,1.87
2019-06-27T16:27:06.443Z,1.27
2019-06-27T16:29:38.820Z,3.45
2019-06-27T16:32:09.748Z,1.55
2019-06-27T16:34:40.664Z,2.52
2019-06-27T16:37:11.722Z,3.22
2019-06-27T16:39:42.643Z,1.65
2019-06-27T16:42:13.583Z,4.42
2019-06-27T16:44:44.582Z,1.45
2019-06-27T16:47:15.837Z,2.25
2019-06-27T16:49:46.693Z,3.27
2019-06-27T16:52:17.615Z,2.17
2019-06-27T16:54:48.532Z,4.17
2019-06-27T16:57:19.456Z,2.65
2019-06-27T16:59:50.375Z,1.57
2019-06-27T17:02:21.116Z,1.20
2019-06-27T17:04:52.086Z,1.85
2019-06-27T17:07:23.043Z,1.37
2019-06-27T17:09:53.967Z,4.65
2019-06-27T17:12:24.947Z,2.15
2019-06-27T17:17:32.189Z,1.87
2019-06-27T17:20:05.552Z,1.82
2019-06-27T17:22:57.637Z,1.22
2019-06-27T17:25:37.329Z,2.30
2019-06-27T17:28:08.344Z,1.20
2019-06-27T17:30:42.633Z,1.17
2019-06-27T17:33:22.970Z,2.62
2019-06-27T17:35:56.482Z,2.65
2019-06-27T17:38:27.399Z,2.77
2019-06-27T17:40:59.011Z,1.60
2019-06-27T17:43:29.904Z,2.35
2019-06-27T17:46:00.767Z,2.58
2019-06-27T17:48:34.681Z,2.52
2019-06-27T17:51:07.818Z,1.40
2019-06-27T17:53:38.236Z,3.05
2019-06-27T17:56:10.233Z,2.45
2019-06-27T17:58:41.194Z,2.40
2019-06-27T18:01:12.115Z,1.65
2019-06-27T18:03:43.288Z,4.80
2019-06-27T18:06:14.160Z,1.00
2019-06-27T18:08:45.328Z,1.75
2019-06-27T18:11:16.204Z,2.37
2019-06-27T18:13:47.154Z,1.77
2019-06-27T18:16:18.032Z,2.35
2019-06-27T18:18:48.964Z,2.50
2019-06-27T18:21:19.816Z,2.17
2019-06-27T18:23:50.830Z,2.52
2019-06-27T18:26:21.721Z,3.20
2019-06-27T18:28:52.663Z,2.80
2019-06-27T18:31:23.694Z,2.20
2019-06-27T18:33:54.605Z,1.20
2019-06-27T18:36:25.590Z,3.70
2019-06-27T18:38:56.444Z,1.92
2019-06-27T18:41:27.259Z,1.57
2019-06-27T18:43:58.382Z,2.83
2019-06-27T18:46:29.493Z,2.47
2019-06-27T18:49:00.725Z,2.85
2019-06-27T18:51:31.655Z,4.03
2019-06-27T18:54:02.418Z,3.10
2019-06-27T18:56:33.562Z,7.20
2019-06-27T18:59:04.818Z,2.12
2019-06-27T19:01:35.820Z,1.75
2019-06-27T19:04:06.854Z,1.30
2019-06-27T19:06:37.882Z,3.20
2019-06-27T19:09:09.158Z,2.25
2019-06-27T19:11:39.996Z,1.57
2019-06-27T19:14:10.853Z,1.40
2019-06-27T19:16:41.668Z,7.47
2019-06-27T19:19:14.185Z,2.53
2019-06-27T19:21:46.616Z,3.97
2019-06-27T19:24:19.102Z,1.87
2019-06-27T19:26:53.277Z,3.20
2019-06-27T19:29:25.891Z,2.50
2019-06-27T19:31:56.824Z,2.10
2019-06-27T19:34:27.677Z,3.20
2019-06-27T19:37:01.511Z,1.57
2019-06-27T19:39:32.325Z,3.57
2019-06-27T19:42:03.173Z,3.07
2019-06-27T19:44:34.078Z,2.80
2019-06-27T19:47:04.931Z,2.80
2019-06-27T19:49:35.745Z,1.67
2019-06-27T19:52:06.601Z,1.90
2019-06-27T19:54:37.289Z,3.23
2019-06-27T19:57:08.093Z,4.00
2019-06-27T19:59:38.853Z,5.43
2019-06-27T20:02:09.823Z,2.00
2019-06-27T20:04:41.428Z,4.57
2019-06-27T20:07:12.237Z,3.20
2019-06-27T20:09:43.227Z,5.13
2019-06-27T20:12:14.066Z,3.50
2019-06-27T20:14:44.836Z,3.07
2019-06-27T20:17:16.699Z,1.73
2019-06-27T20:19:47.508Z,2.13
2019-06-27T20:22:18.298Z,2.33
2019-06-27T20:24:49.133Z,2.07
2019-06-27T20:27:19.962Z,2.77
2019-06-27T20:29:50.728Z,2.57
2019-06-27T20:32:21.458Z,4.07
2019-06-27T20:34:52.214Z,1.73
2019-06-27T20:37:22.960Z,3.70
2019-06-27T20:39:53.825Z,2.37
2019-06-27T20:42:24.638Z,1.83
2019-06-27T20:44:55.433Z,1.30
2019-06-27T20:47:26.258Z,1.93
2019-06-27T20:49:57.018Z,4.00
2019-06-27T20:52:27.806Z,1.57
2019-06-27T20:54:58.639Z,2.40
2019-06-27T20:57:29.442Z,4.80
2019-06-27T21:00:00.247Z,3.70
2019-06-27T21:02:31.015Z,3.13
2019-06-27T21:05:01.950Z,2.00
2019-06-27T21:07:33.019Z,1.40
2019-06-27T21:10:08.627Z,2.00
2019-06-27T21:12:39.397Z,2.27
2019-06-27T21:15:11.834Z,2.13
2019-06-27T21:17:42.783Z,2.00
2019-06-27T21:20:13.828Z,2.40
2019-06-27T21:22:46.100Z,6.67
2019-06-27T21:25:17.288Z,2.73
2019-06-27T21:27:48.391Z,5.07
2019-06-27T21:30:19.225Z,2.83
2019-06-27T21:32:50.022Z,4.30
2019-06-27T21:35:20.780Z,4.73
2019-06-27T21:37:54.839Z,1.97
2019-06-27T21:40:25.722Z,1.53
2019-06-27T21:42:56.612Z,4.07
2019-06-27T21:45:27.697Z,2.40
2019-06-27T21:47:58.602Z,3.10
2019-06-27T21:50:29.388Z,2.03
2019-06-27T21:53:00.153Z,2.60
2019-06-27T21:55:31.088Z,2.50
2019-06-27T21:58:01.848Z,2.87
2019-06-27T22:00:33.403Z,2.43
2019-06-27T22:03:04.693Z,1.70
2019-06-27T22:05:35.486Z,3.00
2019-06-27T22:08:06.326Z,2.93
2019-06-27T22:10:37.318Z,4.03
2019-06-27T22:13:08.093Z,3.73
2019-06-27T22:15:38.955Z,4.97
2019-06-27T22:18:09.795Z,4.13
2019-06-27T22:20:40.648Z,4.93
2019-06-27T22:23:11.465Z,3.97
2019-06-27T22:25:42.238Z,2.73
2019-06-27T22:28:13.203Z,3.80
2019-06-27T22:30:44.704Z,4.30
2019-06-27T22:33:15.540Z,5.03
2019-06-27T22:35:46.311Z,6.17
2019-06-27T22:38:34.867Z,3.33
2019-06-27T22:41:23.972Z,5.63
2019-06-27T22:44:12.892Z,3.50
2019-06-27T22:47:01.303Z,5.43
2019-06-27T22:49:31.787Z,5.03
2019-06-27T22:52:16.057Z,5.83
2019-06-27T22:54:51.226Z,9.40
2019-06-27T22:57:22.144Z,11.80
2019-06-27T22:59:53.063Z,18.63
2019-06-27T23:02:23.773Z,6.83
2019-06-27T23:04:54.540Z,18.43
2019-06-27T23:07:25.270Z,12.53
2019-06-27T23:09:57.489Z,8.67
2019-06-27T23:12:28.457Z,15.43
2019-06-27T23:14:59.148Z,6.20
2019-06-27T23:17:29.923Z,4.83
2019-06-27T23:20:00.722Z,4.87
2019-06-27T23:22:31.495Z,3.30
2019-06-27T23:25:02.302Z,4.80
2019-06-27T23:27:33.105Z,6.73
2019-06-27T23:30:04.670Z,2.93
2019-06-27T23:32:35.372Z,4.27
2019-06-27T23:35:07.321Z,3.53
2019-06-27T23:37:41.084Z,4.73
2019-06-27T23:40:15.041Z,3.83
2019-06-27T23:42:46.016Z,5.33
2019-06-27T23:45:16.868Z,4.77
2019-06-27T23:47:47.726Z,4.43
2019-06-27T23:50:21.280Z,2.33
2019-06-27T23:52:52.033Z,2.93
2019-06-27T23:55:22.911Z,4.17
2019-06-27T23:57:53.600Z,5.07
